createdAt,value
2022-09-02T00:01:24.387Z,0.80
2022-09-02T00:03:55.053Z,1.13
2022-09-02T00:06:22.083Z,0.80
2022-09-02T00:08:49.795Z,1.00
2022-09-02T00:11:20.122Z,1.07
2022-09-02T00:13:47.209Z,0.80
2022-09-02T00:16:14.345Z,1.00
2022-09-02T00:18:44.960Z,1.00
2022-09-02T00:21:14.367Z,0.80
2022-09-02T00:23:43.113Z,1.03
2022-09-02T00:26:09.788Z,1.00
2022-09-02T00:28:36.721Z,0.70
2022-09-02T00:31:03.307Z,1.00
2022-09-02T00:33:31.546Z,0.80
2022-09-02T00:36:00.924Z,0.63
2022-09-02T00:38:28.773Z,0.80
2022-09-02T00:40:55.491Z,0.70
2022-09-02T00:43:39.494Z,0.80
2022-09-02T00:46:08.234Z,0.77
2022-09-02T00:48:37.925Z,0.80
2022-09-02T00:51:04.695Z,0.77
2022-09-02T00:53:33.948Z,0.90
2022-09-02T00:56:02.128Z,0.90
2022-09-02T00:58:34.033Z,0.80
2022-09-02T01:01:00.905Z,0.80
2022-09-02T01:03:30.986Z,0.70
2022-09-02T01:05:59.446Z,1.00
2022-09-02T01:08:30.036Z,1.00
2022-09-02T01:10:57.118Z,0.80
2022-09-02T01:13:27.207Z,1.00
2022-09-02T01:16:13.173Z,0.90
2022-09-02T01:18:41.890Z,0.90
2022-09-02T01:21:08.858Z,0.90
2022-09-02T01:23:36.188Z,0.77
2022-09-02T01:26:05.145Z,0.77
2022-09-02T01:28:33.453Z,1.00
2022-09-02T01:31:00.866Z,0.80
2022-09-02T01:33:27.504Z,0.70
2022-09-02T01:35:55.434Z,0.80
2022-09-02T01:38:23.741Z,1.10
2022-09-02T01:40:50.932Z,0.80
2022-09-02T01:43:20.949Z,1.00
2022-09-02T01:45:51.944Z,0.97
2022-09-02T01:48:21.531Z,1.03
2022-09-02T01:50:56.593Z,0.80
2022-09-02T01:53:23.625Z,1.13
2022-09-02T01:55:52.791Z,0.70
2022-09-02T01:58:20.311Z,0.90
2022-09-02T02:00:48.384Z,0.90
2022-09-02T02:03:15.328Z,1.13
2022-09-02T02:05:42.562Z,1.20
2022-09-02T02:08:09.813Z,1.10
2022-09-02T02:10:36.591Z,2.10
2022-09-02T02:13:04.875Z,0.83
2022-09-02T02:17:59.028Z,1.10
2022-09-02T02:20:27.039Z,0.80
2022-09-02T02:22:53.830Z,1.30
2022-09-02T02:25:20.869Z,0.87
2022-09-02T02:27:51.289Z,1.03
2022-09-02T02:30:21.362Z,1.03
2022-09-02T02:32:48.466Z,0.80
2022-09-02T02:35:19.238Z,1.00
2022-09-02T02:37:49.175Z,0.90
2022-09-02T02:40:21.942Z,0.90
2022-09-02T02:42:53.133Z,1.20
2022-09-02T02:45:23.185Z,0.90
2022-09-02T02:47:51.080Z,1.07
2022-09-02T02:50:20.701Z,1.07
2022-09-02T02:52:48.833Z,1.10
2022-09-02T02:55:17.110Z,0.93
2022-09-02T02:57:44.498Z,0.90
2022-09-02T03:00:12.005Z,1.07
2022-09-02T03:02:39.324Z,0.90
2022-09-02T03:05:09.536Z,1.13
2022-09-02T03:07:36.208Z,0.70
2022-09-02T03:10:08.278Z,1.07
2022-09-02T03:12:37.220Z,1.17
2022-09-02T03:15:04.681Z,1.10
2022-09-02T03:17:31.430Z,1.30
2022-09-02T03:19:59.708Z,1.40
2022-09-02T03:22:29.166Z,1.20
2022-09-02T03:24:56.610Z,1.20
2022-09-02T03:27:23.630Z,1.10
2022-09-02T03:29:51.123Z,1.20
2022-09-02T03:32:17.966Z,1.00
2022-09-02T03:34:45.939Z,1.20
2022-09-02T03:37:12.579Z,1.40
2022-09-02T03:39:41.214Z,1.30
2022-09-02T03:42:08.109Z,1.20
2022-09-02T03:44:47.684Z,1.30
2022-09-02T03:47:15.143Z,1.27
2022-09-02T03:49:41.818Z,1.30
2022-09-02T03:52:11.499Z,1.30
2022-09-02T03:54:38.691Z,2.00
2022-09-02T03:57:06.090Z,1.30
2022-09-02T03:59:33.089Z,1.53
2022-09-02T04:02:02.766Z,1.40
2022-09-02T04:04:30.572Z,1.50
2022-09-02T04:06:58.105Z,1.10
2022-09-02T04:09:26.671Z,1.07
2022-09-02T04:11:53.679Z,1.30
2022-09-02T04:14:20.453Z,1.37
2022-09-02T04:16:47.456Z,1.40
2022-09-02T04:19:14.699Z,1.33
2022-09-02T04:21:42.219Z,1.20
2022-09-02T04:24:11.515Z,1.20
2022-09-02T04:26:45.310Z,1.53
2022-09-02T04:29:15.519Z,1.23
2022-09-02T04:31:43.455Z,1.80
2022-09-02T04:34:11.112Z,1.33
2022-09-02T04:36:37.845Z,1.23
2022-09-02T04:39:09.432Z,1.20
2022-09-02T04:41:37.737Z,1.50
2022-09-02T04:44:08.006Z,1.50
2022-09-02T04:46:38.521Z,1.37
2022-09-02T04:49:08.740Z,1.40
2022-09-02T04:51:38.130Z,1.67
2022-09-02T04:54:06.750Z,1.30
2022-09-02T04:56:33.838Z,1.30
2022-09-02T04:59:02.397Z,1.43
2022-09-02T05:01:32.755Z,1.43
2022-09-02T05:04:09.939Z,1.50
2022-09-02T05:06:44.259Z,1.33
2022-09-02T05:09:15.466Z,1.17
2022-09-02T05:11:42.564Z,1.10
2022-09-02T05:14:09.601Z,1.00
2022-09-02T05:16:40.089Z,1.30
2022-09-02T05:19:11.814Z,1.33
2022-09-02T05:21:45.022Z,1.20
2022-09-02T05:24:17.776Z,0.90
2022-09-02T05:26:44.994Z,1.20
2022-09-02T05:29:14.206Z,1.27
2022-09-02T05:31:42.418Z,0.90
2022-09-02T05:34:14.007Z,1.10
2022-09-02T05:36:41.612Z,1.20
2022-09-02T05:39:09.303Z,1.00
2022-09-02T05:41:37.377Z,0.93
2022-09-02T05:44:06.752Z,1.10
2022-09-02T05:46:35.408Z,1.07
2022-09-02T05:49:07.563Z,1.10
2022-09-02T05:51:44.314Z,1.23
2022-09-02T05:54:15.673Z,1.20
2022-09-02T05:56:44.917Z,1.03
2022-09-02T05:59:13.485Z,1.50
2022-09-02T06:01:41.227Z,0.93
2022-09-02T06:04:08.181Z,1.53
2022-09-02T06:06:38.646Z,1.30
2022-09-02T06:09:08.526Z,1.03
2022-09-02T06:11:42.850Z,1.27
2022-09-02T06:14:11.417Z,1.50
2022-09-02T06:16:38.929Z,1.30
2022-09-02T06:19:10.206Z,1.50
2022-09-02T06:21:38.734Z,1.27
2022-09-02T06:24:07.231Z,1.73
2022-09-02T06:26:36.300Z,1.70
2022-09-02T06:29:03.990Z,2.10
2022-09-02T06:31:34.583Z,1.53
2022-09-02T06:34:03.655Z,1.33
2022-09-02T06:36:31.746Z,2.00
2022-09-02T06:39:01.014Z,1.60
2022-09-02T06:41:33.369Z,1.80
2022-09-02T06:44:07.083Z,1.83
2022-09-02T06:46:39.537Z,2.20
2022-09-02T06:49:09.161Z,2.33
2022-09-02T06:51:40.286Z,1.97
2022-09-02T06:54:10.137Z,1.83
2022-09-02T06:56:38.777Z,1.90
2022-09-02T06:59:07.334Z,2.05
2022-09-02T07:01:54.297Z,1.88
2022-09-02T07:04:41.936Z,2.00
2022-09-02T07:07:12.332Z,1.83
2022-09-02T07:09:50.054Z,1.75
2022-09-02T07:12:19.544Z,1.55
2022-09-02T07:15:07.665Z,1.60
2022-09-02T07:17:38.558Z,1.67
2022-09-02T07:20:10.374Z,1.40
2022-09-02T07:22:42.475Z,1.25
2022-09-02T07:25:11.421Z,1.60
2022-09-02T07:27:38.286Z,1.50
2022-09-02T07:30:06.725Z,1.48
2022-09-02T07:32:37.424Z,1.45
2022-09-02T07:35:06.956Z,1.58
2022-09-02T07:37:35.153Z,1.70
2022-09-02T07:40:08.184Z,1.33
2022-09-02T07:42:35.260Z,1.30
2022-09-02T07:45:02.141Z,1.70
2022-09-02T07:47:29.030Z,1.80
2022-09-02T07:52:43.025Z,1.10
2022-09-02T07:55:14.885Z,1.30
2022-09-02T07:57:43.062Z,1.00
2022-09-02T08:00:12.186Z,1.15
2022-09-02T08:02:41.628Z,1.10
2022-09-02T08:05:11.357Z,1.00
2022-09-02T08:07:38.303Z,1.20
2022-09-02T08:10:09.967Z,1.10
2022-09-02T08:12:37.981Z,0.90
2022-09-02T08:15:05.541Z,1.00
2022-09-02T08:17:32.713Z,0.90
2022-09-02T08:19:59.334Z,1.13
2022-09-02T08:22:26.995Z,1.20
2022-09-02T08:24:53.566Z,1.00
2022-09-02T08:27:20.290Z,1.30
2022-09-02T08:29:47.216Z,0.90
2022-09-02T08:32:13.831Z,1.05
2022-09-02T08:34:40.437Z,1.00
2022-09-02T08:37:07.198Z,1.15
2022-09-02T08:39:33.867Z,0.88
2022-09-02T08:42:19.212Z,1.02
2022-09-02T08:44:47.284Z,1.00
2022-09-02T08:47:22.828Z,1.40
2022-09-02T08:49:53.434Z,1.15
2022-09-02T08:52:33.761Z,1.50
2022-09-02T08:55:02.716Z,0.93
2022-09-02T08:57:32.361Z,1.50
2022-09-02T09:00:02.439Z,0.90
2022-09-02T09:03:32.928Z,1.60
2022-09-02T09:06:14.816Z,2.93
2022-09-02T09:09:23.455Z,2.20
2022-09-02T09:12:07.703Z,1.53
2022-09-02T09:14:56.070Z,1.83
2022-09-02T09:17:30.388Z,1.83
2022-09-02T09:20:03.073Z,1.90
2022-09-02T09:22:33.398Z,4.63
2022-09-02T09:25:01.010Z,6.20
2022-09-02T09:27:28.273Z,6.97
2022-09-02T09:29:55.727Z,6.67
2022-09-02T09:32:33.617Z,4.53
2022-09-02T09:35:10.752Z,3.80
2022-09-02T09:37:38.722Z,3.00
2022-09-02T09:40:23.348Z,1.73
2022-09-02T09:43:14.658Z,1.37
2022-09-02T09:45:49.874Z,1.20
2022-09-02T09:48:16.718Z,1.10
2022-09-02T09:50:44.895Z,1.50
2022-09-02T09:53:18.360Z,1.00
2022-09-02T09:55:52.804Z,1.43
2022-09-02T09:58:22.098Z,1.30
2022-09-02T10:00:49.165Z,1.00
2022-09-02T10:03:23.742Z,1.20
2022-09-02T10:05:57.301Z,1.17
2022-09-02T10:08:26.759Z,1.30
2022-09-02T10:11:21.567Z,1.10
2022-09-02T10:13:48.202Z,1.20
2022-09-02T10:16:45.342Z,1.07
2022-09-02T10:19:22.892Z,1.40
2022-09-02T10:22:07.480Z,1.50
2022-09-02T10:24:55.221Z,1.00
2022-09-02T10:27:32.169Z,1.63
2022-09-02T10:30:22.035Z,1.20
2022-09-02T10:33:13.396Z,1.63
2022-09-02T10:35:44.519Z,1.83
2022-09-02T10:38:39.791Z,1.37
2022-09-02T10:44:38.152Z,1.20
2022-09-02T10:47:29.470Z,1.30
2022-09-02T10:50:13.444Z,0.90
2022-09-02T10:52:58.524Z,1.10
2022-09-02T10:55:51.342Z,1.10
2022-09-02T10:58:25.340Z,1.07
2022-09-02T11:00:56.783Z,0.90
2022-09-02T11:03:29.724Z,1.10
2022-09-02T11:06:22.071Z,1.40
2022-09-02T11:09:12.405Z,0.73
2022-09-02T11:11:45.870Z,0.90
2022-09-02T11:14:35.574Z,1.00
2022-09-02T11:17:16.534Z,0.97
2022-09-02T11:20:09.030Z,1.00
2022-09-02T11:23:03.455Z,0.87
2022-09-02T11:25:38.687Z,1.20
2022-09-02T11:28:30.014Z,1.10
2022-09-02T11:31:06.748Z,1.10
2022-09-02T11:33:51.280Z,1.13
2022-09-02T11:36:18.488Z,1.20
2022-09-02T11:38:58.570Z,1.07
2022-09-02T11:41:35.433Z,1.20
2022-09-02T11:44:30.840Z,1.43
2022-09-02T11:47:08.935Z,1.20
2022-09-02T11:49:50.618Z,1.20
2022-09-02T11:52:33.879Z,0.90
2022-09-02T11:55:17.632Z,0.97
2022-09-02T11:57:53.831Z,1.10
2022-09-02T12:00:36.753Z,1.17
2022-09-02T12:03:16.629Z,1.00
2022-09-02T12:05:52.318Z,0.97
2022-09-02T12:08:28.098Z,1.40
2022-09-02T12:11:00.013Z,1.80
2022-09-02T12:16:42.421Z,0.90
2022-09-02T12:19:10.653Z,1.20
2022-09-02T12:22:15.142Z,1.00
2022-09-02T12:24:55.146Z,1.23
2022-09-02T12:27:26.122Z,1.10
2022-09-02T12:29:53.270Z,0.90
2022-09-02T12:32:48.841Z,1.13
2022-09-02T12:35:34.754Z,1.00
2022-09-02T12:38:11.765Z,1.10
2022-09-02T12:40:56.253Z,1.03
2022-09-02T12:43:57.688Z,2.10
2022-09-02T12:46:36.506Z,1.40
2022-09-02T12:49:22.057Z,1.10
2022-09-02T12:51:55.342Z,1.10
2022-09-02T12:54:29.794Z,1.10
2022-09-02T12:56:56.456Z,1.07
2022-09-02T12:59:30.093Z,1.17
2022-09-02T13:02:35.125Z,1.50
2022-09-02T13:05:28.569Z,1.10
2022-09-02T13:08:04.442Z,1.30
2022-09-02T13:11:21.967Z,1.27
2022-09-02T13:14:30.057Z,1.00
2022-09-02T13:17:35.709Z,1.27
2022-09-02T13:20:32.415Z,1.00
2022-09-02T13:23:16.323Z,1.00
2022-09-02T13:26:02.765Z,1.70
2022-09-02T13:28:46.141Z,1.20
2022-09-02T13:31:27.466Z,1.23
2022-09-02T13:34:03.668Z,1.00
2022-09-02T13:36:36.493Z,1.00
2022-09-02T13:39:26.802Z,1.20
2022-09-02T13:41:54.567Z,0.80
2022-09-02T13:44:29.427Z,1.20
2022-09-02T13:47:03.259Z,1.27
2022-09-02T13:49:37.943Z,1.40
2022-09-02T13:52:12.173Z,0.90
2022-09-02T13:54:48.503Z,1.03
2022-09-02T13:57:20.798Z,1.10
2022-09-02T13:59:50.256Z,1.00
2022-09-02T14:02:25.918Z,0.80
2022-09-02T14:05:20.276Z,0.97
2022-09-02T14:07:51.390Z,1.00
2022-09-02T14:10:23.232Z,0.90
2022-09-02T14:12:51.143Z,1.30
2022-09-02T14:15:27.756Z,0.90
2022-09-02T14:18:08.798Z,0.97
2022-09-02T14:20:36.834Z,0.87
2022-09-02T14:23:03.767Z,0.93
2022-09-02T14:25:37.987Z,1.10
2022-09-02T14:28:20.542Z,0.97
2022-09-02T14:31:05.439Z,0.87
2022-09-02T14:33:44.474Z,1.10
2022-09-02T14:36:23.626Z,1.00
2022-09-02T14:38:55.746Z,1.10
2022-09-02T14:41:47.206Z,1.07
2022-09-02T14:44:23.526Z,0.90
2022-09-02T14:46:53.011Z,1.20
2022-09-02T14:49:28.841Z,0.90
2022-09-02T14:51:58.806Z,1.10
2022-09-02T14:54:40.052Z,1.20
2022-09-02T14:57:19.143Z,1.00
2022-09-02T14:59:45.810Z,0.87
2022-09-02T15:02:27.596Z,0.90
2022-09-02T15:04:59.089Z,0.93
2022-09-02T15:07:26.600Z,1.07
2022-09-02T15:09:53.478Z,1.33
2022-09-02T15:12:24.629Z,1.00
2022-09-02T15:14:54.286Z,1.13
2022-09-02T15:17:21.221Z,1.00
2022-09-02T15:19:48.423Z,1.30
2022-09-02T15:22:16.395Z,1.23
2022-09-02T15:24:46.896Z,1.27
2022-09-02T15:27:14.270Z,1.10
2022-09-02T15:29:43.969Z,0.90
2022-09-02T15:32:10.922Z,0.90
2022-09-02T15:34:37.551Z,0.90
2022-09-02T15:37:04.918Z,1.10
2022-09-02T15:39:31.567Z,1.40
2022-09-02T15:41:58.660Z,1.23
2022-09-02T15:44:25.921Z,1.10
2022-09-02T15:46:53.594Z,1.07
2022-09-02T15:49:21.791Z,0.93
2022-09-02T15:51:49.801Z,1.13
2022-09-02T15:54:19.106Z,1.00
2022-09-02T15:56:47.683Z,0.97
2022-09-02T15:59:17.558Z,1.00
2022-09-02T16:01:46.224Z,0.97
2022-09-02T16:04:13.896Z,1.00
2022-09-02T16:06:42.858Z,0.80
2022-09-02T16:09:11.740Z,1.07
2022-09-02T16:11:40.089Z,1.07
2022-09-02T16:14:07.479Z,0.90
2022-09-02T16:16:35.796Z,1.03
2022-09-02T16:19:05.143Z,1.37
2022-09-02T16:21:31.927Z,1.00
2022-09-02T16:23:59.015Z,1.20
2022-09-02T16:26:31.349Z,0.93
2022-09-02T16:29:00.371Z,0.80
2022-09-02T16:31:29.825Z,0.90
2022-09-02T16:33:59.494Z,0.90
2022-09-02T16:36:29.100Z,0.70
2022-09-02T16:39:01.093Z,1.00
2022-09-02T16:41:32.351Z,1.13
2022-09-02T16:44:00.814Z,1.30
2022-09-02T16:46:29.345Z,0.90
2022-09-02T16:48:56.533Z,0.90
2022-09-02T16:51:24.684Z,0.93
2022-09-02T16:54:09.593Z,1.13
2022-09-02T16:56:44.494Z,1.10
2022-09-02T16:59:12.688Z,0.83
2022-09-02T17:01:40.477Z,1.30
2022-09-02T17:04:08.767Z,1.03
2022-09-02T17:06:41.280Z,1.07
2022-09-02T17:09:09.239Z,0.90
2022-09-02T17:11:39.761Z,1.87
2022-09-02T17:14:11.961Z,1.00
2022-09-02T17:16:44.341Z,0.83
2022-09-02T17:19:12.201Z,1.10
2022-09-02T17:21:43.908Z,0.80
2022-09-02T17:24:12.645Z,0.80
2022-09-02T17:26:41.254Z,1.00
2022-09-02T17:29:26.270Z,0.83
2022-09-02T17:31:59.806Z,0.67
2022-09-02T17:34:26.616Z,1.07
2022-09-02T17:36:53.417Z,0.70
2022-09-02T17:39:20.595Z,0.97
2022-09-02T17:41:54.319Z,0.97
2022-09-02T17:44:26.956Z,1.13
2022-09-02T17:46:55.841Z,1.10
2022-09-02T17:49:22.546Z,0.90
2022-09-02T17:51:49.555Z,0.90
2022-09-02T17:54:16.490Z,1.00
2022-09-02T17:57:09.748Z,0.70
2022-09-02T18:00:04.035Z,0.87
2022-09-02T18:03:22.565Z,0.90
2022-09-02T18:05:52.233Z,1.00
2022-09-02T18:08:47.595Z,1.63
2022-09-02T18:11:14.232Z,1.00
2022-09-02T18:13:48.021Z,0.80
2022-09-02T18:16:29.334Z,1.03
2022-09-02T18:19:13.831Z,1.10
2022-09-02T18:22:11.542Z,0.90
2022-09-02T18:24:46.246Z,1.20
2022-09-02T18:27:40.687Z,0.90
2022-09-02T18:30:14.915Z,0.83
2022-09-02T18:32:55.162Z,0.80
2022-09-02T18:35:45.151Z,1.00
2022-09-02T18:38:38.754Z,1.70
2022-09-02T18:41:05.602Z,0.93
2022-09-02T18:43:54.490Z,1.00
2022-09-02T18:46:24.902Z,1.03
2022-09-02T18:48:56.625Z,0.83
2022-09-02T18:51:40.862Z,0.90
2022-09-02T18:54:19.293Z,1.20
2022-09-02T18:56:53.546Z,0.90
2022-09-02T18:59:31.777Z,1.23
2022-09-02T19:02:06.583Z,1.10
2022-09-02T19:04:36.944Z,1.33
2022-09-02T19:07:23.937Z,1.20
2022-09-02T19:09:50.981Z,1.20
2022-09-02T19:12:17.819Z,1.13
2022-09-02T19:14:44.357Z,0.90
2022-09-02T19:17:12.820Z,0.90
2022-09-02T19:19:39.436Z,1.30
2022-09-02T19:22:10.331Z,1.00
2022-09-02T19:24:43.239Z,1.27
2022-09-02T19:27:13.320Z,0.97
2022-09-02T19:29:44.772Z,0.80
2022-09-02T19:32:12.972Z,0.90
2022-09-02T19:34:44.379Z,1.57
2022-09-02T19:37:13.416Z,0.90
2022-09-02T19:39:40.760Z,1.00
2022-09-02T19:42:07.487Z,0.80
2022-09-02T19:44:34.049Z,1.00
2022-09-02T19:49:48.017Z,1.03
2022-09-02T19:52:14.939Z,0.90
2022-09-02T19:54:41.697Z,0.90
2022-09-02T19:57:08.301Z,1.03
2022-09-02T19:59:34.863Z,1.00
2022-09-02T20:02:04.486Z,1.20
2022-09-02T20:04:32.106Z,1.10
2022-09-02T20:06:58.849Z,1.17
2022-09-02T20:09:25.937Z,0.90
2022-09-02T20:11:56.732Z,0.80
2022-09-02T20:14:23.774Z,1.03
2022-09-02T20:16:56.746Z,0.90
2022-09-02T20:19:23.924Z,1.20
2022-09-02T20:21:53.526Z,1.00
2022-09-02T20:24:31.121Z,1.00
2022-09-02T20:27:06.751Z,0.90
2022-09-02T20:30:08.879Z,0.90
2022-09-02T20:33:01.686Z,0.90
2022-09-02T20:35:44.286Z,1.10
2022-09-02T20:38:29.138Z,1.07
2022-09-02T20:41:20.560Z,0.97
2022-09-02T20:44:07.206Z,1.00
2022-09-02T20:46:58.661Z,0.97
2022-09-02T20:50:01.552Z,1.00
2022-09-02T20:53:01.222Z,1.27
2022-09-02T20:55:39.007Z,0.80
2022-09-02T20:58:22.138Z,0.83
2022-09-02T21:01:11.734Z,0.97
2022-09-02T21:03:44.403Z,0.80
2022-09-02T21:06:11.190Z,1.00
2022-09-02T21:08:47.666Z,0.93
2022-09-02T21:11:16.142Z,1.00
2022-09-02T21:13:51.355Z,0.87
2022-09-02T21:16:23.920Z,1.10
2022-09-02T21:19:23.715Z,1.40
2022-09-02T21:22:05.725Z,1.50
2022-09-02T21:24:36.398Z,1.00
2022-09-02T21:27:20.688Z,1.20
2022-09-02T21:30:05.746Z,1.00
2022-09-02T21:32:41.444Z,1.20
2022-09-02T21:35:13.473Z,1.07
2022-09-02T21:37:43.799Z,1.23
2022-09-02T21:40:15.711Z,0.83
2022-09-02T21:43:10.350Z,0.93
2022-09-02T21:45:54.350Z,1.30
2022-09-02T21:48:38.565Z,1.03
2022-09-02T21:51:36.905Z,1.10
2022-09-02T21:54:13.025Z,1.10
2022-09-02T21:57:01.455Z,1.07
2022-09-02T21:59:50.929Z,1.37
2022-09-02T22:02:40.615Z,1.00
2022-09-02T22:05:30.514Z,1.37
2022-09-02T22:08:11.594Z,1.07
2022-09-02T22:11:04.043Z,1.53
2022-09-02T22:13:31.823Z,1.40
2022-09-02T22:16:28.082Z,1.20
2022-09-02T22:19:01.606Z,1.00
2022-09-02T22:21:49.057Z,1.17
2022-09-02T22:24:22.053Z,0.97
2022-09-02T22:26:55.401Z,1.30
2022-09-02T22:29:36.461Z,1.33
2022-09-02T22:32:08.087Z,1.23
2022-09-02T22:34:42.837Z,1.33
2022-09-02T22:37:16.047Z,1.03
2022-09-02T22:39:50.806Z,1.10
2022-09-02T22:42:37.632Z,0.90
2022-09-02T22:45:49.135Z,1.17
2022-09-02T22:48:42.147Z,1.30
2022-09-02T22:51:34.895Z,1.27
2022-09-02T22:54:01.830Z,1.20
2022-09-02T22:56:39.262Z,0.80
2022-09-02T22:59:05.726Z,1.10
2022-09-02T23:02:05.736Z,1.30
2022-09-02T23:04:40.358Z,1.43
2022-09-02T23:07:07.600Z,1.47
2022-09-02T23:09:37.745Z,1.00
2022-09-02T23:12:19.394Z,1.23
2022-09-02T23:15:10.880Z,1.10
2022-09-02T23:18:07.323Z,1.50
2022-09-02T23:20:49.720Z,1.30
2022-09-02T23:23:37.641Z,1.20
2022-09-02T23:26:50.786Z,1.20
2022-09-02T23:29:26.191Z,1.27
2022-09-02T23:32:22.540Z,1.23
2022-09-02T23:35:11.231Z,1.27
2022-09-02T23:38:00.212Z,1.20
2022-09-02T23:40:38.001Z,1.20
2022-09-02T23:43:04.914Z,0.90
2022-09-02T23:45:33.782Z,1.10
2022-09-02T23:48:11.356Z,1.63
2022-09-02T23:50:57.695Z,1.23
2022-09-02T23:53:33.726Z,1.17
2022-09-02T23:56:29.760Z,1.57
2022-09-02T23:59:10.435Z,1.10
